sensor_id;sensor_type;location;lat;lon;timestamp;P1;durP1;ratioP1;P2;durP2;ratioP2
8704;SDS011;4389;41.932;25.904;2023-05-20T00:01:18;15.83;;;10.40;;
8704;SDS011;4389;41.932;25.904;2023-05-20T00:03:45;12.87;;;10.23;;
8704;SDS011;4389;41.932;25.904;2023-05-20T00:06:12;12.97;;;11.27;;
8704;SDS011;4389;41.932;25.904;2023-05-20T00:08:39;13.53;;;10.90;;
8704;SDS011;4389;41.932;25.904;2023-05-20T00:11:06;16.13;;;9.93;;
8704;SDS011;4389;41.932;25.904;2023-05-20T00:13:33;14.17;;;9.90;;
8704;SDS011;4389;41.932;25.904;2023-05-20T00:16:02;11.17;;;9.70;;
8704;SDS011;4389;41.932;25.904;2023-05-20T00:18:29;10.03;;;8.93;;
8704;SDS011;4389;41.932;25.904;2023-05-20T00:20:56;13.07;;;9.77;;
8704;SDS011;4389;41.932;25.904;2023-05-20T00:23:23;12.43;;;9.87;;
8704;SDS011;4389;41.932;25.904;2023-05-20T00:25:50;11.93;;;10.50;;
8704;SDS011;4389;41.932;25.904;2023-05-20T00:28:17;21.20;;;10.83;;
8704;SDS011;4389;41.932;25.904;2023-05-20T00:30:45;13.00;;;11.10;;
8704;SDS011;4389;41.932;25.904;2023-05-20T00:33:13;16.37;;;12.33;;
8704;SDS011;4389;41.932;25.904;2023-05-20T00:35:40;15.70;;;11.80;;
8704;SDS011;4389;41.932;25.904;2023-05-20T00:38:07;10.83;;;9.40;;
8704;SDS011;4389;41.932;25.904;2023-05-20T00:40:33;18.73;;;12.83;;
8704;SDS011;4389;41.932;25.904;2023-05-20T00:43:00;12.33;;;10.00;;
8704;SDS011;4389;41.932;25.904;2023-05-20T00:45:27;14.33;;;10.80;;
8704;SDS011;4389;41.932;25.904;2023-05-20T00:47:54;12.20;;;9.40;;
8704;SDS011;4389;41.932;25.904;2023-05-20T00:50:25;15.13;;;10.03;;
8704;SDS011;4389;41.932;25.904;2023-05-20T00:52:52;23.00;;;10.47;;
8704;SDS011;4389;41.932;25.904;2023-05-20T00:55:19;13.40;;;11.60;;
8704;SDS011;4389;41.932;25.904;2023-05-20T00:57:46;16.83;;;10.03;;
8704;SDS011;4389;41.932;25.904;2023-05-20T01:00:14;11.93;;;9.63;;
8704;SDS011;4389;41.932;25.904;2023-05-20T01:02:41;16.23;;;10.30;;
8704;SDS011;4389;41.932;25.904;2023-05-20T01:05:07;20.73;;;11.40;;
8704;SDS011;4389;41.932;25.904;2023-05-20T01:07:36;14.43;;;10.37;;
8704;SDS011;4389;41.932;25.904;2023-05-20T01:10:03;20.23;;;16.77;;
8704;SDS011;4389;41.932;25.904;2023-05-20T01:12:33;10.53;;;9.43;;
8704;SDS011;4389;41.932;25.904;2023-05-20T01:15:04;10.97;;;9.30;;
8704;SDS011;4389;41.932;25.904;2023-05-20T01:17:35;23.00;;;10.07;;
8704;SDS011;4389;41.932;25.904;2023-05-20T01:20:06;13.40;;;9.83;;
8704;SDS011;4389;41.932;25.904;2023-05-20T01:22:37;19.63;;;10.77;;
8704;SDS011;4389;41.932;25.904;2023-05-20T01:25:04;16.73;;;11.17;;
8704;SDS011;4389;41.932;25.904;2023-05-20T01:27:32;13.80;;;11.40;;
8704;SDS011;4389;41.932;25.904;2023-05-20T01:29:58;14.73;;;11.47;;
8704;SDS011;4389;41.932;25.904;2023-05-20T01:32:27;13.53;;;11.43;;
8704;SDS011;4389;41.932;25.904;2023-05-20T01:35:00;19.53;;;12.33;;
8704;SDS011;4389;41.932;25.904;2023-05-20T01:37:28;16.80;;;11.67;;
8704;SDS011;4389;41.932;25.904;2023-05-20T01:39:59;19.03;;;10.80;;
8704;SDS011;4389;41.932;25.904;2023-05-20T01:42:26;22.50;;;14.23;;
8704;SDS011;4389;41.932;25.904;2023-05-20T01:44:54;14.93;;;13.13;;
8704;SDS011;4389;41.932;25.904;2023-05-20T01:47:21;16.73;;;14.57;;
8704;SDS011;4389;41.932;25.904;2023-05-20T01:49:47;16.90;;;11.47;;
8704;SDS011;4389;41.932;25.904;2023-05-20T01:52:17;16.97;;;12.13;;
8704;SDS011;4389;41.932;25.904;2023-05-20T01:54:44;20.97;;;12.57;;
8704;SDS011;4389;41.932;25.904;2023-05-20T01:57:16;20.30;;;11.03;;
8704;SDS011;4389;41.932;25.904;2023-05-20T01:59:43;17.40;;;11.10;;
8704;SDS011;4389;41.932;25.904;2023-05-20T02:02:10;15.73;;;11.33;;
8704;SDS011;4389;41.932;25.904;2023-05-20T02:04:37;15.70;;;12.50;;
8704;SDS011;4389;41.932;25.904;2023-05-20T02:07:04;14.03;;;11.97;;
8704;SDS011;4389;41.932;25.904;2023-05-20T02:09:30;14.73;;;12.00;;
8704;SDS011;4389;41.932;25.904;2023-05-20T02:11:57;13.90;;;11.83;;
8704;SDS011;4389;41.932;25.904;2023-05-20T02:14:25;14.07;;;12.23;;
8704;SDS011;4389;41.932;25.904;2023-05-20T02:16:52;16.70;;;13.00;;
8704;SDS011;4389;41.932;25.904;2023-05-20T02:19:19;18.03;;;12.57;;
8704;SDS011;4389;41.932;25.904;2023-05-20T02:21:47;15.13;;;11.77;;
8704;SDS011;4389;41.932;25.904;2023-05-20T02:24:15;20.87;;;12.27;;
8704;SDS011;4389;41.932;25.904;2023-05-20T02:26:42;14.50;;;10.73;;
8704;SDS011;4389;41.932;25.904;2023-05-20T02:29:11;17.83;;;11.20;;
8704;SDS011;4389;41.932;25.904;2023-05-20T02:31:39;14.60;;;10.97;;
8704;SDS011;4389;41.932;25.904;2023-05-20T02:34:06;12.27;;;11.03;;
8704;SDS011;4389;41.932;25.904;2023-05-20T02:36:33;16.27;;;10.67;;
8704;SDS011;4389;41.932;25.904;2023-05-20T02:39:00;17.83;;;12.07;;
8704;SDS011;4389;41.932;25.904;2023-05-20T02:41:27;16.60;;;11.73;;
8704;SDS011;4389;41.932;25.904;2023-05-20T02:43:53;14.77;;;12.23;;
8704;SDS011;4389;41.932;25.904;2023-05-20T02:46:20;13.73;;;12.10;;
8704;SDS011;4389;41.932;25.904;2023-05-20T02:48:48;13.07;;;11.77;;
8704;SDS011;4389;41.932;25.904;2023-05-20T02:51:15;16.80;;;12.97;;
8704;SDS011;4389;41.932;25.904;2023-05-20T02:53:42;16.70;;;12.73;;
8704;SDS011;4389;41.932;25.904;2023-05-20T02:56:09;16.10;;;13.50;;
8704;SDS011;4389;41.932;25.904;2023-05-20T02:58:37;18.30;;;13.67;;
8704;SDS011;4389;41.932;25.904;2023-05-20T03:01:04;18.23;;;12.40;;
8704;SDS011;4389;41.932;25.904;2023-05-20T03:03:32;13.83;;;12.10;;
8704;SDS011;4389;41.932;25.904;2023-05-20T03:06:00;14.77;;;11.47;;
8704;SDS011;4389;41.932;25.904;2023-05-20T03:08:27;17.03;;;12.67;;
8704;SDS011;4389;41.932;25.904;2023-05-20T03:10:53;15.77;;;11.63;;
8704;SDS011;4389;41.932;25.904;2023-05-20T03:13:20;18.47;;;15.33;;
8704;SDS011;4389;41.932;25.904;2023-05-20T03:15:47;20.10;;;13.90;;
8704;SDS011;4389;41.932;25.904;2023-05-20T03:18:14;15.17;;;11.87;;
8704;SDS011;4389;41.932;25.904;2023-05-20T03:20:40;12.17;;;10.50;;
8704;SDS011;4389;41.932;25.904;2023-05-20T03:23:09;15.30;;;9.97;;
8704;SDS011;4389;41.932;25.904;2023-05-20T03:25:35;13.40;;;9.97;;
8704;SDS011;4389;41.932;25.904;2023-05-20T03:28:03;12.13;;;9.70;;
8704;SDS011;4389;41.932;25.904;2023-05-20T03:30:31;12.27;;;10.60;;
8704;SDS011;4389;41.932;25.904;2023-05-20T03:32:58;16.03;;;9.93;;
8704;SDS011;4389;41.932;25.904;2023-05-20T03:35:27;15.73;;;10.50;;
8704;SDS011;4389;41.932;25.904;2023-05-20T03:37:54;10.43;;;9.33;;
8704;SDS011;4389;41.932;25.904;2023-05-20T03:40:22;15.13;;;9.40;;
8704;SDS011;4389;41.932;25.904;2023-05-20T03:42:49;21.37;;;8.60;;
8704;SDS011;4389;41.932;25.904;2023-05-20T03:45:16;16.13;;;9.00;;
8704;SDS011;4389;41.932;25.904;2023-05-20T03:47:43;9.67;;;8.77;;
8704;SDS011;4389;41.932;25.904;2023-05-20T03:50:10;9.20;;;8.30;;
8704;SDS011;4389;41.932;25.904;2023-05-20T03:52:37;13.90;;;9.47;;
8704;SDS011;4389;41.932;25.904;2023-05-20T03:55:05;9.53;;;8.53;;
8704;SDS011;4389;41.932;25.904;2023-05-20T03:57:33;10.73;;;9.10;;
8704;SDS011;4389;41.932;25.904;2023-05-20T04:00:00;11.57;;;8.27;;
8704;SDS011;4389;41.932;25.904;2023-05-20T04:02:29;13.70;;;9.53;;
8704;SDS011;4389;41.932;25.904;2023-05-20T04:04:56;12.13;;;8.80;;
8704;SDS011;4389;41.932;25.904;2023-05-20T04:07:26;9.93;;;8.10;;
8704;SDS011;4389;41.932;25.904;2023-05-20T04:09:54;14.97;;;8.70;;
8704;SDS011;4389;41.932;25.904;2023-05-20T04:12:20;9.33;;;8.33;;
8704;SDS011;4389;41.932;25.904;2023-05-20T04:14:51;12.63;;;8.90;;
8704;SDS011;4389;41.932;25.904;2023-05-20T04:17:19;15.83;;;9.07;;
8704;SDS011;4389;41.932;25.904;2023-05-20T04:19:46;10.33;;;8.60;;
8704;SDS011;4389;41.932;25.904;2023-05-20T04:22:13;12.13;;;8.17;;
8704;SDS011;4389;41.932;25.904;2023-05-20T04:24:39;11.67;;;8.53;;
8704;SDS011;4389;41.932;25.904;2023-05-20T04:27:06;12.10;;;8.30;;
8704;SDS011;4389;41.932;25.904;2023-05-20T04:29:33;14.37;;;9.10;;
8704;SDS011;4389;41.932;25.904;2023-05-20T04:32:01;9.43;;;7.70;;
8704;SDS011;4389;41.932;25.904;2023-05-20T04:34:28;11.57;;;7.23;;
8704;SDS011;4389;41.932;25.904;2023-05-20T04:36:59;26.20;;;8.60;;
8704;SDS011;4389;41.932;25.904;2023-05-20T04:39:26;11.43;;;7.13;;
8704;SDS011;4389;41.932;25.904;2023-05-20T04:41:53;9.60;;;7.83;;
8704;SDS011;4389;41.932;25.904;2023-05-20T04:44:20;8.90;;;7.63;;
8704;SDS011;4389;41.932;25.904;2023-05-20T04:46:48;14.73;;;7.50;;
8704;SDS011;4389;41.932;25.904;2023-05-20T04:49:17;17.30;;;7.93;;
8704;SDS011;4389;41.932;25.904;2023-05-20T04:51:43;9.80;;;7.87;;
8704;SDS011;4389;41.932;25.904;2023-05-20T04:54:11;10.77;;;8.57;;
8704;SDS011;4389;41.932;25.904;2023-05-20T04:56:41;14.03;;;9.00;;
8704;SDS011;4389;41.932;25.904;2023-05-20T04:59:08;8.97;;;7.97;;
8704;SDS011;4389;41.932;25.904;2023-05-20T05:01:35;11.27;;;8.83;;
8704;SDS011;4389;41.932;25.904;2023-05-20T05:04:02;14.30;;;9.53;;
8704;SDS011;4389;41.932;25.904;2023-05-20T05:06:30;11.53;;;8.93;;
8704;SDS011;4389;41.932;25.904;2023-05-20T05:08:57;12.77;;;8.73;;
8704;SDS011;4389;41.932;25.904;2023-05-20T05:11:24;11.10;;;8.90;;
8704;SDS011;4389;41.932;25.904;2023-05-20T05:13:51;13.80;;;9.43;;
8704;SDS011;4389;41.932;25.904;2023-05-20T05:16:18;13.10;;;9.47;;
8704;SDS011;4389;41.932;25.904;2023-05-20T05:18:45;11.40;;;8.30;;
8704;SDS011;4389;41.932;25.904;2023-05-20T05:21:12;11.93;;;9.30;;
8704;SDS011;4389;41.932;25.904;2023-05-20T05:23:40;12.37;;;9.63;;
8704;SDS011;4389;41.932;25.904;2023-05-20T05:26:07;25.83;;;10.17;;
8704;SDS011;4389;41.932;25.904;2023-05-20T05:28:33;15.60;;;9.33;;
8704;SDS011;4389;41.932;25.904;2023-05-20T05:31:00;20.90;;;9.87;;
8704;SDS011;4389;41.932;25.904;2023-05-20T05:33:27;18.13;;;9.50;;
8704;SDS011;4389;41.932;25.904;2023-05-20T05:35:54;12.03;;;7.73;;
8704;SDS011;4389;41.932;25.904;2023-05-20T05:38:23;14.57;;;9.43;;
8704;SDS011;4389;41.932;25.904;2023-05-20T05:40:51;11.20;;;9.03;;
8704;SDS011;4389;41.932;25.904;2023-05-20T05:43:18;11.80;;;9.23;;
8704;SDS011;4389;41.932;25.904;2023-05-20T05:45:45;10.03;;;7.80;;
8704;SDS011;4389;41.932;25.904;2023-05-20T05:48:12;10.33;;;8.53;;
8704;SDS011;4389;41.932;25.904;2023-05-20T05:50:42;12.10;;;9.20;;
8704;SDS011;4389;41.932;25.904;2023-05-20T05:53:10;11.67;;;8.50;;
8704;SDS011;4389;41.932;25.904;2023-05-20T05:55:36;12.57;;;9.63;;
8704;SDS011;4389;41.932;25.904;2023-05-20T05:58:05;10.70;;;8.30;;
8704;SDS011;4389;41.932;25.904;2023-05-20T06:00:32;11.70;;;8.83;;
8704;SDS011;4389;41.932;25.904;2023-05-20T06:02:58;13.27;;;9.37;;
8704;SDS011;4389;41.932;25.904;2023-05-20T06:05:25;16.10;;;8.80;;
8704;SDS011;4389;41.932;25.904;2023-05-20T06:07:52;9.33;;;8.37;;
8704;SDS011;4389;41.932;25.904;2023-05-20T06:10:19;9.73;;;8.67;;
8704;SDS011;4389;41.932;25.904;2023-05-20T06:12:46;11.03;;;8.07;;
8704;SDS011;4389;41.932;25.904;2023-05-20T06:15:14;10.33;;;8.63;;
8704;SDS011;4389;41.932;25.904;2023-05-20T06:17:40;9.70;;;7.70;;
8704;SDS011;4389;41.932;25.904;2023-05-20T06:20:07;17.90;;;7.83;;
8704;SDS011;4389;41.932;25.904;2023-05-20T06:22:35;10.63;;;7.30;;
8704;SDS011;4389;41.932;25.904;2023-05-20T06:25:02;15.67;;;7.90;;
8704;SDS011;4389;41.932;25.904;2023-05-20T06:27:30;16.70;;;9.57;;
8704;SDS011;4389;41.932;25.904;2023-05-20T06:29:57;11.03;;;7.83;;
8704;SDS011;4389;41.932;25.904;2023-05-20T06:32:25;18.13;;;8.00;;
8704;SDS011;4389;41.932;25.904;2023-05-20T06:34:53;17.27;;;7.63;;
8704;SDS011;4389;41.932;25.904;2023-05-20T06:37:19;7.80;;;7.00;;
8704;SDS011;4389;41.932;25.904;2023-05-20T06:39:48;12.67;;;7.67;;
8704;SDS011;4389;41.932;25.904;2023-05-20T06:42:18;12.27;;;6.60;;
8704;SDS011;4389;41.932;25.904;2023-05-20T06:44:45;12.70;;;6.60;;
8704;SDS011;4389;41.932;25.904;2023-05-20T06:47:13;12.47;;;6.73;;
8704;SDS011;4389;41.932;25.904;2023-05-20T06:49:42;8.23;;;5.90;;
8704;SDS011;4389;41.932;25.904;2023-05-20T06:52:09;7.27;;;6.43;;
8704;SDS011;4389;41.932;25.904;2023-05-20T06:54:36;10.80;;;7.20;;
8704;SDS011;4389;41.932;25.904;2023-05-20T06:57:05;8.53;;;6.60;;
8704;SDS011;4389;41.932;25.904;2023-05-20T06:59:33;8.23;;;7.17;;
8704;SDS011;4389;41.932;25.904;2023-05-20T07:02:00;8.07;;;6.37;;
8704;SDS011;4389;41.932;25.904;2023-05-20T07:04:27;7.50;;;6.63;;
8704;SDS011;4389;41.932;25.904;2023-05-20T07:06:55;11.07;;;6.80;;
8704;SDS011;4389;41.932;25.904;2023-05-20T07:09:22;8.53;;;6.50;;
8704;SDS011;4389;41.932;25.904;2023-05-20T07:11:49;10.13;;;6.33;;
8704;SDS011;4389;41.932;25.904;2023-05-20T07:14:15;7.33;;;6.63;;
8704;SDS011;4389;41.932;25.904;2023-05-20T07:16:42;8.73;;;7.20;;
8704;SDS011;4389;41.932;25.904;2023-05-20T07:19:09;9.63;;;6.13;;
8704;SDS011;4389;41.932;25.904;2023-05-20T07:21:36;7.47;;;5.90;;
8704;SDS011;4389;41.932;25.904;2023-05-20T07:24:04;9.73;;;6.47;;
8704;SDS011;4389;41.932;25.904;2023-05-20T07:26:31;10.70;;;6.67;;
8704;SDS011;4389;41.932;25.904;2023-05-20T07:29:00;6.80;;;6.03;;
8704;SDS011;4389;41.932;25.904;2023-05-20T07:31:28;16.07;;;6.80;;
8704;SDS011;4389;41.932;25.904;2023-05-20T07:33:55;24.50;;;6.93;;
8704;SDS011;4389;41.932;25.904;2023-05-20T07:36:21;8.10;;;6.40;;
8704;SDS011;4389;41.932;25.904;2023-05-20T07:38:48;12.93;;;6.00;;
8704;SDS011;4389;41.932;25.904;2023-05-20T07:41:16;8.13;;;5.57;;
8704;SDS011;4389;41.932;25.904;2023-05-20T07:43:44;10.80;;;5.83;;
8704;SDS011;4389;41.932;25.904;2023-05-20T07:46:11;14.80;;;6.53;;
8704;SDS011;4389;41.932;25.904;2023-05-20T07:48:37;7.73;;;5.93;;
8704;SDS011;4389;41.932;25.904;2023-05-20T07:51:04;7.37;;;6.37;;
8704;SDS011;4389;41.932;25.904;2023-05-20T07:53:31;9.90;;;6.07;;
8704;SDS011;4389;41.932;25.904;2023-05-20T07:55:59;7.07;;;5.80;;
8704;SDS011;4389;41.932;25.904;2023-05-20T07:58:27;9.97;;;6.40;;
8704;SDS011;4389;41.932;25.904;2023-05-20T08:00:55;14.57;;;6.03;;
8704;SDS011;4389;41.932;25.904;2023-05-20T08:03:22;6.93;;;6.23;;
8704;SDS011;4389;41.932;25.904;2023-05-20T08:05:49;8.87;;;5.60;;
8704;SDS011;4389;41.932;25.904;2023-05-20T08:08:16;8.00;;;5.87;;
8704;SDS011;4389;41.932;25.904;2023-05-20T08:10:43;8.27;;;5.97;;
8704;SDS011;4389;41.932;25.904;2023-05-20T08:13:09;6.67;;;5.50;;
8704;SDS011;4389;41.932;25.904;2023-05-20T08:15:38;6.77;;;6.03;;
8704;SDS011;4389;41.932;25.904;2023-05-20T08:18:05;7.70;;;5.00;;
8704;SDS011;4389;41.932;25.904;2023-05-20T08:20:31;7.80;;;6.00;;
8704;SDS011;4389;41.932;25.904;2023-05-20T08:22:58;5.93;;;5.30;;
8704;SDS011;4389;41.932;25.904;2023-05-20T08:25:25;7.20;;;5.53;;
8704;SDS011;4389;41.932;25.904;2023-05-20T08:27:52;13.00;;;6.03;;
8704;SDS011;4389;41.932;25.904;2023-05-20T08:30:19;11.37;;;6.33;;
8704;SDS011;4389;41.932;25.904;2023-05-20T08:32:47;7.40;;;5.50;;
8704;SDS011;4389;41.932;25.904;2023-05-20T08:35:14;11.63;;;5.57;;
8704;SDS011;4389;41.932;25.904;2023-05-20T08:37:41;9.07;;;5.83;;
8704;SDS011;4389;41.932;25.904;2023-05-20T08:40:08;6.53;;;5.93;;
8704;SDS011;4389;41.932;25.904;2023-05-20T08:42:39;9.17;;;6.50;;
8704;SDS011;4389;41.932;25.904;2023-05-20T08:45:08;6.77;;;6.07;;
8704;SDS011;4389;41.932;25.904;2023-05-20T08:47:37;7.53;;;6.40;;
8704;SDS011;4389;41.932;25.904;2023-05-20T08:50:08;11.70;;;5.97;;
8704;SDS011;4389;41.932;25.904;2023-05-20T08:52:36;9.67;;;5.93;;
8704;SDS011;4389;41.932;25.904;2023-05-20T08:55:07;6.50;;;5.83;;
8704;SDS011;4389;41.932;25.904;2023-05-20T08:57:36;6.80;;;5.90;;
8704;SDS011;4389;41.932;25.904;2023-05-20T09:00:06;7.87;;;5.70;;
8704;SDS011;4389;41.932;25.904;2023-05-20T09:02:37;7.57;;;6.40;;
8704;SDS011;4389;41.932;25.904;2023-05-20T09:05:04;9.13;;;5.90;;
8704;SDS011;4389;41.932;25.904;2023-05-20T09:07:34;6.93;;;6.30;;
8704;SDS011;4389;41.932;25.904;2023-05-20T09:10:01;10.70;;;6.03;;
8704;SDS011;4389;41.932;25.904;2023-05-20T09:12:29;8.83;;;6.57;;
8704;SDS011;4389;41.932;25.904;2023-05-20T09:14:56;8.60;;;5.67;;
8704;SDS011;4389;41.932;25.904;2023-05-20T09:17:22;6.67;;;5.97;;
8704;SDS011;4389;41.932;25.904;2023-05-20T09:19:49;11.80;;;6.53;;
8704;SDS011;4389;41.932;25.904;2023-05-20T09:22:20;11.40;;;5.87;;
8704;SDS011;4389;41.932;25.904;2023-05-20T09:24:49;10.13;;;6.40;;
8704;SDS011;4389;41.932;25.904;2023-05-20T09:27:17;8.93;;;6.03;;
8704;SDS011;4389;41.932;25.904;2023-05-20T09:29:45;8.30;;;6.10;;
8704;SDS011;4389;41.932;25.904;2023-05-20T09:32:12;8.63;;;5.17;;
8704;SDS011;4389;41.932;25.904;2023-05-20T09:34:39;11.77;;;5.63;;
8704;SDS011;4389;41.932;25.904;2023-05-20T09:37:07;8.20;;;5.50;;
8704;SDS011;4389;41.932;25.904;2023-05-20T09:39:38;6.17;;;5.57;;
8704;SDS011;4389;41.932;25.904;2023-05-20T09:42:17;7.07;;;5.17;;
8704;SDS011;4389;41.932;25.904;2023-05-20T09:44:47;11.53;;;5.13;;
8704;SDS011;4389;41.932;25.904;2023-05-20T09:47:15;9.73;;;5.10;;
8704;SDS011;4389;41.932;25.904;2023-05-20T09:49:44;16.40;;;5.87;;
8704;SDS011;4389;41.932;25.904;2023-05-20T09:52:12;7.17;;;4.63;;
8704;SDS011;4389;41.932;25.904;2023-05-20T09:54:41;7.03;;;5.13;;
8704;SDS011;4389;41.932;25.904;2023-05-20T09:57:10;11.37;;;5.20;;
8704;SDS011;4389;41.932;25.904;2023-05-20T09:59:39;14.57;;;5.53;;
8704;SDS011;4389;41.932;25.904;2023-05-20T10:02:06;12.60;;;5.63;;
8704;SDS011;4389;41.932;25.904;2023-05-20T10:04:34;7.13;;;5.13;;
8704;SDS011;4389;41.932;25.904;2023-05-20T10:07:17;5.80;;;5.07;;
8704;SDS011;4389;41.932;25.904;2023-05-20T10:09:57;8.47;;;6.47;;
8704;SDS011;4389;41.932;25.904;2023-05-20T10:12:33;7.27;;;5.40;;
8704;SDS011;4389;41.932;25.904;2023-05-20T10:15:13;6.60;;;4.73;;
8704;SDS011;4389;41.932;25.904;2023-05-20T10:17:45;13.00;;;5.67;;
8704;SDS011;4389;41.932;25.904;2023-05-20T10:20:19;7.03;;;5.17;;
8704;SDS011;4389;41.932;25.904;2023-05-20T10:22:53;7.80;;;5.90;;
8704;SDS011;4389;41.932;25.904;2023-05-20T10:25:22;11.57;;;4.63;;
8704;SDS011;4389;41.932;25.904;2023-05-20T10:27:51;10.10;;;5.47;;
8704;SDS011;4389;41.932;25.904;2023-05-20T10:30:30;5.90;;;5.17;;
8704;SDS011;4389;41.932;25.904;2023-05-20T10:32:57;10.47;;;5.17;;
8704;SDS011;4389;41.932;25.904;2023-05-20T10:35:29;7.93;;;4.83;;
8704;SDS011;4389;41.932;25.904;2023-05-20T10:38:05;7.33;;;5.07;;
8704;SDS011;4389;41.932;25.904;2023-05-20T10:40:33;5.97;;;5.10;;
8704;SDS011;4389;41.932;25.904;2023-05-20T10:43:07;6.67;;;5.27;;
8704;SDS011;4389;41.932;25.904;2023-05-20T10:45:46;7.53;;;5.40;;
8704;SDS011;4389;41.932;25.904;2023-05-20T10:48:18;10.97;;;5.90;;
8704;SDS011;4389;41.932;25.904;2023-05-20T10:50:46;11.07;;;5.57;;
8704;SDS011;4389;41.932;25.904;2023-05-20T10:53:13;11.63;;;5.50;;
8704;SDS011;4389;41.932;25.904;2023-05-20T10:55:46;9.70;;;5.50;;
8704;SDS011;4389;41.932;25.904;2023-05-20T10:58:15;10.50;;;5.77;;
8704;SDS011;4389;41.932;25.904;2023-05-20T11:00:44;8.77;;;6.00;;
8704;SDS011;4389;41.932;25.904;2023-05-20T11:03:11;9.90;;;6.20;;
8704;SDS011;4389;41.932;25.904;2023-05-20T11:05:39;6.03;;;5.10;;
8704;SDS011;4389;41.932;25.904;2023-05-20T11:08:07;6.80;;;5.30;;
8704;SDS011;4389;41.932;25.904;2023-05-20T11:10:35;6.53;;;5.23;;
8704;SDS011;4389;41.932;25.904;2023-05-20T11:13:02;9.03;;;5.33;;
8704;SDS011;4389;41.932;25.904;2023-05-20T11:15:30;8.20;;;5.90;;
8704;SDS011;4389;41.932;25.904;2023-05-20T11:18:00;19.13;;;6.77;;
8704;SDS011;4389;41.932;25.904;2023-05-20T11:20:27;7.70;;;5.50;;
8704;SDS011;4389;41.932;25.904;2023-05-20T11:22:59;7.13;;;5.80;;
8704;SDS011;4389;41.932;25.904;2023-05-20T11:25:27;8.97;;;5.00;;
8704;SDS011;4389;41.932;25.904;2023-05-20T11:27:54;5.77;;;5.03;;
8704;SDS011;4389;41.932;25.904;2023-05-20T11:30:21;6.83;;;4.93;;
8704;SDS011;4389;41.932;25.904;2023-05-20T11:32:57;25.17;;;6.30;;
8704;SDS011;4389;41.932;25.904;2023-05-20T11:35:27;10.43;;;5.53;;
8704;SDS011;4389;41.932;25.904;2023-05-20T11:37:55;9.17;;;5.27;;
8704;SDS011;4389;41.932;25.904;2023-05-20T11:40:23;5.97;;;5.10;;
8704;SDS011;4389;41.932;25.904;2023-05-20T11:42:55;12.20;;;5.03;;
8704;SDS011;4389;41.932;25.904;2023-05-20T11:45:23;5.63;;;4.60;;
8704;SDS011;4389;41.932;25.904;2023-05-20T11:47:59;8.93;;;5.13;;
8704;SDS011;4389;41.932;25.904;2023-05-20T11:50:27;5.10;;;4.60;;
8704;SDS011;4389;41.932;25.904;2023-05-20T11:52:56;6.97;;;4.93;;
8704;SDS011;4389;41.932;25.904;2023-05-20T11:55:24;7.90;;;4.70;;
8704;SDS011;4389;41.932;25.904;2023-05-20T11:57:51;10.40;;;4.70;;
8704;SDS011;4389;41.932;25.904;2023-05-20T12:00:18;8.60;;;4.27;;
8704;SDS011;4389;41.932;25.904;2023-05-20T12:02:45;6.17;;;4.50;;
8704;SDS011;4389;41.932;25.904;2023-05-20T12:05:13;6.23;;;4.80;;
8704;SDS011;4389;41.932;25.904;2023-05-20T12:07:41;10.10;;;4.77;;
8704;SDS011;4389;41.932;25.904;2023-05-20T12:10:08;8.30;;;5.10;;
8704;SDS011;4389;41.932;25.904;2023-05-20T12:12:35;8.50;;;4.97;;
8704;SDS011;4389;41.932;25.904;2023-05-20T12:15:02;6.00;;;5.37;;
8704;SDS011;4389;41.932;25.904;2023-05-20T12:17:30;5.17;;;4.60;;
8704;SDS011;4389;41.932;25.904;2023-05-20T12:19:57;14.03;;;7.13;;
8704;SDS011;4389;41.932;25.904;2023-05-20T12:22:26;10.83;;;5.30;;
8704;SDS011;4389;41.932;25.904;2023-05-20T12:24:52;5.83;;;5.07;;
8704;SDS011;4389;41.932;25.904;2023-05-20T12:27:19;6.43;;;5.13;;
8704;SDS011;4389;41.932;25.904;2023-05-20T12:29:46;9.50;;;5.50;;
8704;SDS011;4389;41.932;25.904;2023-05-20T12:32:13;15.43;;;5.60;;
8704;SDS011;4389;41.932;25.904;2023-05-20T12:34:40;7.13;;;4.47;;
8704;SDS011;4389;41.932;25.904;2023-05-20T12:37:07;4.90;;;4.40;;
8704;SDS011;4389;41.932;25.904;2023-05-20T12:39:35;10.33;;;4.90;;
8704;SDS011;4389;41.932;25.904;2023-05-20T12:42:02;13.43;;;5.50;;
8704;SDS011;4389;41.932;25.904;2023-05-20T12:44:29;6.07;;;4.93;;
8704;SDS011;4389;41.932;25.904;2023-05-20T12:46:56;6.00;;;4.73;;
8704;SDS011;4389;41.932;25.904;2023-05-20T12:49:23;6.17;;;4.27;;
8704;SDS011;4389;41.932;25.904;2023-05-20T12:51:50;6.10;;;4.40;;
8704;SDS011;4389;41.932;25.904;2023-05-20T12:54:17;6.80;;;4.67;;
8704;SDS011;4389;41.932;25.904;2023-05-20T12:56:45;11.03;;;4.67;;
8704;SDS011;4389;41.932;25.904;2023-05-20T12:59:12;4.80;;;4.33;;
8704;SDS011;4389;41.932;25.904;2023-05-20T13:01:39;8.63;;;5.03;;
8704;SDS011;4389;41.932;25.904;2023-05-20T13:04:06;8.40;;;4.68;;
8704;SDS011;4389;41.932;25.904;2023-05-20T13:06:34;12.03;;;4.93;;
8704;SDS011;4389;41.932;25.904;2023-05-20T13:09:01;7.45;;;4.80;;
8704;SDS011;4389;41.932;25.904;2023-05-20T13:11:28;6.30;;;4.27;;
8704;SDS011;4389;41.932;25.904;2023-05-20T13:13:56;8.30;;;4.87;;
8704;SDS011;4389;41.932;25.904;2023-05-20T13:16:22;8.63;;;4.30;;
8704;SDS011;4389;41.932;25.904;2023-05-20T13:18:50;6.73;;;4.63;;
8704;SDS011;4389;41.932;25.904;2023-05-20T13:21:18;10.57;;;4.77;;
8704;SDS011;4389;41.932;25.904;2023-05-20T13:23:45;5.53;;;4.30;;
8704;SDS011;4389;41.932;25.904;2023-05-20T13:26:13;7.03;;;4.10;;
8704;SDS011;4389;41.932;25.904;2023-05-20T13:28:40;6.73;;;4.70;;
8704;SDS011;4389;41.932;25.904;2023-05-20T13:31:08;4.73;;;4.23;;
8704;SDS011;4389;41.932;25.904;2023-05-20T13:33:36;7.10;;;4.53;;
8704;SDS011;4389;41.932;25.904;2023-05-20T13:36:03;7.83;;;4.00;;
8704;SDS011;4389;41.932;25.904;2023-05-20T13:38:30;22.57;;;5.40;;
8704;SDS011;4389;41.932;25.904;2023-05-20T13:40:57;9.13;;;4.50;;
8704;SDS011;4389;41.932;25.904;2023-05-20T13:43:24;7.93;;;4.73;;
8704;SDS011;4389;41.932;25.904;2023-05-20T13:45:52;7.20;;;4.17;;
8704;SDS011;4389;41.932;25.904;2023-05-20T13:48:21;14.57;;;4.73;;
8704;SDS011;4389;41.932;25.904;2023-05-20T13:50:48;7.07;;;4.50;;
8704;SDS011;4389;41.932;25.904;2023-05-20T13:53:14;5.97;;;5.07;;
8704;SDS011;4389;41.932;25.904;2023-05-20T13:55:41;4.80;;;4.13;;
8704;SDS011;4389;41.932;25.904;2023-05-20T13:58:08;9.47;;;4.70;;
8704;SDS011;4389;41.932;25.904;2023-05-20T14:00:35;9.07;;;4.43;;
8704;SDS011;4389;41.932;25.904;2023-05-20T14:03:03;6.53;;;4.33;;
8704;SDS011;4389;41.932;25.904;2023-05-20T14:05:34;7.60;;;4.70;;
8704;SDS011;4389;41.932;25.904;2023-05-20T14:08:01;12.47;;;4.90;;
8704;SDS011;4389;41.932;25.904;2023-05-20T14:10:28;5.87;;;4.27;;
8704;SDS011;4389;41.932;25.904;2023-05-20T14:12:56;8.63;;;4.53;;
8704;SDS011;4389;41.932;25.904;2023-05-20T14:15:26;16.73;;;3.67;;
8704;SDS011;4389;41.932;25.904;2023-05-20T14:17:54;8.93;;;4.10;;
8704;SDS011;4389;41.932;25.904;2023-05-20T14:20:22;7.43;;;4.30;;
8704;SDS011;4389;41.932;25.904;2023-05-20T14:22:50;7.80;;;4.20;;
8704;SDS011;4389;41.932;25.904;2023-05-20T14:25:17;11.93;;;4.03;;
8704;SDS011;4389;41.932;25.904;2023-05-20T14:27:44;5.15;;;4.38;;
8704;SDS011;4389;41.932;25.904;2023-05-20T14:30:11;6.43;;;4.40;;
8704;SDS011;4389;41.932;25.904;2023-05-20T14:32:38;7.57;;;4.00;;
8704;SDS011;4389;41.932;25.904;2023-05-20T14:35:05;5.77;;;4.57;;
8704;SDS011;4389;41.932;25.904;2023-05-20T14:37:33;5.57;;;5.07;;
8704;SDS011;4389;41.932;25.904;2023-05-20T14:40:02;9.20;;;4.57;;
8704;SDS011;4389;41.932;25.904;2023-05-20T14:42:31;7.47;;;4.80;;
8704;SDS011;4389;41.932;25.904;2023-05-20T14:44:58;26.97;;;6.13;;
8704;SDS011;4389;41.932;25.904;2023-05-20T14:47:25;8.53;;;4.90;;
8704;SDS011;4389;41.932;25.904;2023-05-20T14:49:52;21.47;;;5.50;;
8704;SDS011;4389;41.932;25.904;2023-05-20T14:52:18;7.97;;;5.00;;
8704;SDS011;4389;41.932;25.904;2023-05-20T14:54:45;7.87;;;4.70;;